createdAt,value
2017-10-25T00:00:30.348Z,-40
2017-10-25T00:01:10.842Z,-39.49
2017-10-25T00:03:23.580Z,-40
2017-10-25T00:04:04.064Z,-40
2017-10-25T00:04:44.578Z,-40
2017-10-25T00:05:25.048Z,-40
2017-10-25T00:06:05.521Z,-40
2017-10-25T00:06:46.043Z,-40
2017-10-25T00:07:26.512Z,-40
2017-10-25T00:08:06.990Z,-40
2017-10-25T00:08:47.488Z,-40
2017-10-25T00:09:27.982Z,-40
2017-10-25T00:10:08.430Z,-40
2017-10-25T00:10:48.903Z,-40
2017-10-25T00:11:29.350Z,-40
2017-10-25T00:12:09.803Z,-40
2017-10-25T00:12:50.263Z,-40
2017-10-25T00:14:47.999Z,-40
2017-10-25T00:15:28.529Z,-39.49
2017-10-25T00:16:08.962Z,-40
2017-10-25T00:16:49.437Z,-40
2017-10-25T00:17:29.865Z,-40
2017-10-25T00:18:10.330Z,-39.49
2017-10-25T00:18:50.823Z,-38.71
2017-10-25T00:19:31.281Z,-39.49
2017-10-25T00:20:11.762Z,-40
2017-10-25T00:20:52.212Z,-40
2017-10-25T00:21:32.671Z,-40
2017-10-25T00:22:13.117Z,-39.49
2017-10-25T00:22:53.550Z,-39.49
2017-10-25T00:23:34.005Z,-39.49
2017-10-25T00:24:14.436Z,-40
2017-10-25T00:24:54.898Z,-40
2017-10-25T00:25:35.318Z,-40
2017-10-25T00:26:15.783Z,-40
2017-10-25T00:26:56.247Z,-40
2017-10-25T00:27:36.798Z,-40
2017-10-25T00:28:17.271Z,-39.49
2017-10-25T00:28:57.745Z,-40
2017-10-25T00:29:38.174Z,-40
2017-10-25T00:30:18.653Z,-39.49
2017-10-25T00:30:59.145Z,-40
2017-10-25T00:31:39.599Z,-40
2017-10-25T00:32:20.034Z,-38.71
2017-10-25T00:33:00.493Z,-34.85
2017-10-25T00:33:40.954Z,-40
2017-10-25T00:34:21.452Z,-40
2017-10-25T00:35:01.915Z,-39.36
2017-10-25T00:35:42.384Z,-40
2017-10-25T00:36:22.842Z,-40
2017-10-25T00:37:03.367Z,-40
2017-10-25T00:37:43.830Z,-40
2017-10-25T00:38:24.262Z,-40
2017-10-25T00:39:04.791Z,-34.85
2017-10-25T00:39:45.284Z,-39.98
2017-10-25T00:40:25.744Z,-40
2017-10-25T00:41:06.238Z,-40
2017-10-25T00:41:46.680Z,-40
2017-10-25T00:42:27.103Z,-39.49
2017-10-25T00:43:07.582Z,-40
2017-10-25T00:43:48.054Z,-40
2017-10-25T00:44:28.548Z,-40
2017-10-25T00:46:21.094Z,-40
2017-10-25T00:47:01.576Z,-40
2017-10-25T00:47:42.022Z,-40
2017-10-25T00:48:22.473Z,-40
2017-10-25T00:49:02.929Z,-40
2017-10-25T00:49:43.387Z,-39.36
2017-10-25T00:50:23.840Z,-40
2017-10-25T00:51:04.322Z,-40
2017-10-25T00:51:44.802Z,-39.36
2017-10-25T00:52:25.311Z,-39.49
2017-10-25T00:53:05.788Z,-40
2017-10-25T00:53:46.264Z,-39.49
2017-10-25T00:54:26.709Z,-39.49
2017-10-25T00:55:07.136Z,-40
2017-10-25T00:55:47.596Z,-39.36
2017-10-25T00:56:28.062Z,-40
2017-10-25T00:57:08.472Z,-40
2017-10-25T00:57:48.916Z,-40
2017-10-25T00:59:41.464Z,-40
2017-10-25T01:00:21.921Z,-39.49
2017-10-25T01:01:02.373Z,-40
2017-10-25T01:02:54.885Z,-40
2017-10-25T01:03:35.372Z,-40
2017-10-25T01:04:15.911Z,-39.84
2017-10-25T01:06:13.532Z,-40
2017-10-25T01:06:54.004Z,-39.49
2017-10-25T01:07:34.505Z,-40
2017-10-25T01:08:14.962Z,-40
2017-10-25T01:08:56.394Z,-29.69
2017-10-25T01:09:36.866Z,-40
2017-10-25T01:10:17.330Z,-39.49
2017-10-25T01:10:57.827Z,-39.49
2017-10-25T01:11:38.328Z,-39.96
2017-10-25T01:12:18.805Z,-40
2017-10-25T01:12:59.271Z,-39.49
2017-10-25T01:13:39.766Z,-40
2017-10-25T01:14:20.272Z,-39.49
2017-10-25T01:15:00.796Z,-39.68
2017-10-25T01:15:41.224Z,-40
2017-10-25T01:16:21.692Z,-39.49
2017-10-25T01:17:02.155Z,-39.49
2017-10-25T01:17:42.612Z,-39.49
2017-10-25T01:18:23.126Z,-40
2017-10-25T01:19:03.582Z,-40
2017-10-25T01:20:56.097Z,-40
2017-10-25T01:21:36.567Z,-40
2017-10-25T01:22:17.052Z,-39.49
2017-10-25T01:22:57.541Z,-40
2017-10-25T01:23:38.041Z,-40
2017-10-25T01:24:18.533Z,-39.49
2017-10-25T01:24:59.001Z,-40
2017-10-25T01:25:39.501Z,-39.49
2017-10-25T01:26:19.977Z,-40
2017-10-25T01:27:00.439Z,-40
2017-10-25T01:28:53.024Z,-40
2017-10-25T01:29:33.590Z,-40
2017-10-25T01:30:14.051Z,-40
2017-10-25T01:30:54.529Z,-39.36
2017-10-25T01:31:34.989Z,-39.98
2017-10-25T01:32:15.482Z,-40
2017-10-25T01:34:02.982Z,-39.98
2017-10-25T01:34:43.453Z,-39.36
2017-10-25T01:35:23.942Z,-39.99
2017-10-25T01:36:04.454Z,125
2017-10-25T01:36:44.929Z,-40
2017-10-25T01:37:25.420Z,1.25
2017-10-25T01:38:05.935Z,-40
2017-10-25T01:38:46.415Z,-40
2017-10-25T01:39:26.914Z,-40
2017-10-25T01:40:07.418Z,-39.49
2017-10-25T01:40:47.898Z,-40
2017-10-25T01:41:28.348Z,-40
2017-10-25T01:42:08.839Z,-40
2017-10-25T01:42:49.287Z,-40
2017-10-25T01:43:29.724Z,-40
2017-10-25T01:44:10.166Z,-39.49
2017-10-25T01:44:50.644Z,-40
2017-10-25T01:45:31.073Z,-19.38
2017-10-25T01:46:11.547Z,125
2017-10-25T01:46:52.002Z,-39.49
2017-10-25T01:47:32.456Z,-40
2017-10-25T01:48:12.905Z,-40
2017-10-25T01:48:53.383Z,-39.49
2017-10-25T01:49:33.875Z,-40
2017-10-25T01:50:14.328Z,-40
2017-10-25T01:50:54.789Z,-40
2017-10-25T01:51:35.254Z,-40
2017-10-25T01:52:15.766Z,-40
2017-10-25T01:52:56.222Z,-39.49
2017-10-25T01:53:36.682Z,125
2017-10-25T01:54:17.155Z,-40
2017-10-25T01:56:29.872Z,-40
2017-10-25T01:57:10.330Z,-39.49
2017-10-25T01:57:50.870Z,-19.38
2017-10-25T01:58:31.288Z,-40
2017-10-25T01:59:11.731Z,-39.49
2017-10-25T01:59:52.195Z,-40
2017-10-25T02:00:32.647Z,-40
2017-10-25T02:01:13.131Z,-39.49
2017-10-25T02:01:53.586Z,-40
2017-10-25T02:02:34.025Z,-40
2017-10-25T02:03:14.489Z,-39.36
2017-10-25T02:03:54.936Z,-39.49
2017-10-25T02:04:35.386Z,-39.49
2017-10-25T02:05:15.871Z,-40
2017-10-25T02:05:56.272Z,-39.68
2017-10-25T02:06:36.746Z,-29.69
2017-10-25T02:07:17.248Z,-40
2017-10-25T02:07:57.688Z,-40
2017-10-25T02:08:38.127Z,-40
2017-10-25T02:09:18.662Z,-40
2017-10-25T02:09:59.083Z,-39.49
2017-10-25T02:10:39.545Z,-39.49
2017-10-25T02:11:20.001Z,-40
2017-10-25T02:12:00.440Z,-40
2017-10-25T02:12:40.894Z,-39.49
2017-10-25T02:13:21.329Z,-40
2017-10-25T02:14:01.789Z,-40
2017-10-25T02:14:42.232Z,-40
2017-10-25T02:15:22.674Z,-40
2017-10-25T02:16:03.138Z,-40
2017-10-25T02:16:43.575Z,-40
2017-10-25T02:17:24.077Z,-40
2017-10-25T02:18:04.538Z,-40
2017-10-25T02:18:44.994Z,-39.99
2017-10-25T02:19:25.433Z,-40
2017-10-25T02:20:05.932Z,-39.49
2017-10-25T02:20:46.401Z,-40
2017-10-25T02:21:26.868Z,-39.68
2017-10-25T02:22:07.332Z,-40
2017-10-25T02:22:47.830Z,-40
2017-10-25T02:23:28.295Z,-39.49
2017-10-25T02:24:08.737Z,-40
2017-10-25T02:24:49.224Z,-40
2017-10-25T02:25:29.649Z,-40
2017-10-25T02:26:10.125Z,-40
2017-10-25T02:26:50.619Z,-40
2017-10-25T02:27:31.052Z,-40
2017-10-25T02:28:11.514Z,-39.49
2017-10-25T02:28:51.964Z,-39.49
2017-10-25T02:29:32.414Z,-39.49
2017-10-25T02:30:12.870Z,-39.49
2017-10-25T02:30:53.361Z,-40
2017-10-25T02:31:33.813Z,17.55
2017-10-25T02:32:14.219Z,-39.49
2017-10-25T02:32:54.693Z,-39.49
2017-10-25T02:33:35.124Z,-39.49
2017-10-25T02:34:15.566Z,-39.49
2017-10-25T02:36:13.238Z,17.72
2017-10-25T02:36:53.731Z,17.62
2017-10-25T02:37:34.151Z,17.56
2017-10-25T02:38:14.552Z,17.63
2017-10-25T02:39:51.924Z,17.63
2017-10-25T02:40:32.366Z,17.64
2017-10-25T02:41:13.046Z,17.62
2017-10-25T02:41:53.521Z,17.59
2017-10-25T02:43:40.993Z,-40
2017-10-25T02:44:21.475Z,16.93
2017-10-25T02:45:01.931Z,16.96
2017-10-25T02:45:42.425Z,17.3
2017-10-25T02:46:22.876Z,17.14
2017-10-25T02:47:03.327Z,17.18
2017-10-25T02:47:43.780Z,17.25
2017-10-25T02:48:24.256Z,17.28
2017-10-25T02:49:04.649Z,17.36
2017-10-25T02:49:45.129Z,17.49
2017-10-25T02:50:25.533Z,17.3
2017-10-25T02:51:06.022Z,17.4
2017-10-25T02:51:46.441Z,17.25
2017-10-25T02:52:26.919Z,17.14
2017-10-25T02:53:07.350Z,17.19
2017-10-25T02:53:47.921Z,17.31
2017-10-25T02:56:00.646Z,17.21
2017-10-25T02:56:41.149Z,17.16
2017-10-25T02:57:21.570Z,16.98
2017-10-25T02:58:01.997Z,17.14
2017-10-25T02:58:42.419Z,17.21
2017-10-25T02:59:22.931Z,17.04
2017-10-25T03:00:03.373Z,17.15
2017-10-25T03:00:43.861Z,17
2017-10-25T03:01:24.330Z,17.11
2017-10-25T03:02:04.792Z,17.04
2017-10-25T03:02:45.240Z,16.98
2017-10-25T03:03:25.736Z,16.94
2017-10-25T03:04:06.221Z,16.97
2017-10-25T03:04:46.745Z,-40
2017-10-25T03:05:28.109Z,16.94
2017-10-25T03:06:08.566Z,16.94
2017-10-25T03:06:49.047Z,16.89
2017-10-25T03:07:29.496Z,16.96
2017-10-25T03:08:09.983Z,17
2017-10-25T03:08:50.484Z,-40
2017-10-25T03:10:38.006Z,-40
2017-10-25T03:11:18.458Z,16.91
2017-10-25T03:11:58.947Z,-40
2017-10-25T03:12:39.362Z,-40
2017-10-25T03:13:19.865Z,16.98
2017-10-25T03:14:00.288Z,-40
2017-10-25T03:14:40.747Z,-40
2017-10-25T03:15:21.257Z,16.89
2017-10-25T03:16:01.708Z,16.83
2017-10-25T03:16:42.139Z,17.75
2017-10-25T03:17:22.604Z,-40
2017-10-25T03:18:03.008Z,16.88
2017-10-25T03:18:43.448Z,-40
2017-10-25T03:19:27.911Z,-40
2017-10-25T03:20:08.362Z,-40
2017-10-25T03:20:48.893Z,-40
2017-10-25T03:21:29.318Z,-40
2017-10-25T03:22:09.796Z,-40
2017-10-25T03:22:50.214Z,18.94
2017-10-25T03:23:30.736Z,-40
2017-10-25T03:24:11.169Z,-40
2017-10-25T03:24:51.578Z,-40
2017-10-25T03:25:32.088Z,-40
2017-10-25T03:26:12.527Z,-40
2017-10-25T03:26:53.002Z,-40
2017-10-25T03:27:33.385Z,-40
2017-10-25T03:28:13.825Z,-39.36
2017-10-25T03:28:54.262Z,-40
2017-10-25T03:29:34.718Z,-39.49
2017-10-25T03:30:15.151Z,-40
2017-10-25T03:30:55.653Z,-40
2017-10-25T03:31:36.055Z,-39.84
2017-10-25T03:32:16.520Z,-39.68
2017-10-25T03:32:56.970Z,-39.49
2017-10-25T03:33:37.422Z,-39.36
2017-10-25T03:35:24.906Z,-40
2017-10-25T03:36:05.378Z,-40
2017-10-25T03:36:45.800Z,-40
2017-10-25T03:37:26.289Z,-40
2017-10-25T03:38:06.741Z,-40
2017-10-25T03:39:59.267Z,-40
2017-10-25T03:40:39.747Z,-40
2017-10-25T03:41:20.226Z,-40
2017-10-25T03:42:00.714Z,-40
2017-10-25T03:42:41.228Z,-40
2017-10-25T03:43:21.701Z,-40
2017-10-25T03:44:02.191Z,-40
2017-10-25T03:44:42.673Z,-40
2017-10-25T03:46:40.332Z,-40
2017-10-25T03:47:20.820Z,-40
2017-10-25T03:48:01.274Z,-39.49
2017-10-25T03:48:41.713Z,-39.92
2017-10-25T03:49:22.128Z,-38.71
2017-10-25T03:50:02.574Z,-39.49
2017-10-25T03:50:43.019Z,-39.49
2017-10-25T03:51:23.472Z,-39.36
2017-10-25T03:52:03.916Z,-39.96
2017-10-25T03:54:16.716Z,-40
2017-10-25T03:54:57.087Z,-39.84
2017-10-25T03:55:37.548Z,-39.49
2017-10-25T03:57:50.191Z,-40
2017-10-25T03:58:30.691Z,-40
2017-10-25T03:59:11.139Z,-40
2017-10-25T03:59:51.615Z,-40
2017-10-25T04:00:32.097Z,-40
2017-10-25T04:01:12.580Z,-40
2017-10-25T04:01:53.052Z,-40
2017-10-25T04:02:33.482Z,-39.49
2017-10-25T04:03:13.923Z,-39.49
2017-10-25T04:03:54.368Z,-39.49
2017-10-25T04:04:34.854Z,-40
2017-10-25T04:05:15.320Z,-40
2017-10-25T04:05:55.809Z,-40
2017-10-25T04:06:36.233Z,-40
2017-10-25T04:07:16.676Z,-40
2017-10-25T04:07:57.122Z,-40
2017-10-25T04:08:37.577Z,25.17
2017-10-25T04:09:18.030Z,25.36
2017-10-25T04:09:58.488Z,-40
2017-10-25T04:10:38.976Z,-40
2017-10-25T04:11:19.444Z,27.72
2017-10-25T04:11:59.893Z,25.9
2017-10-25T04:12:40.318Z,-40
2017-10-25T04:13:20.751Z,16.82
2017-10-25T04:14:01.218Z,22.37
2017-10-25T04:14:41.672Z,16.73
2017-10-25T04:15:22.132Z,21.07
2017-10-25T04:16:02.584Z,16.98
2017-10-25T04:16:43.067Z,17.01
2017-10-25T04:17:23.499Z,16.82
2017-10-25T04:18:03.975Z,23.84
2017-10-25T04:18:44.450Z,16.76
2017-10-25T04:19:24.895Z,17.79
2017-10-25T04:20:05.337Z,16.89
2017-10-25T04:20:45.784Z,16.75
2017-10-25T04:21:26.260Z,16.88
2017-10-25T04:22:06.692Z,16.78
2017-10-25T04:22:47.142Z,16.78
2017-10-25T04:23:27.657Z,17.07
2017-10-25T04:24:08.143Z,19.58
2017-10-25T04:24:48.588Z,26.29
2017-10-25T04:25:29.123Z,21.75
2017-10-25T04:26:09.581Z,22.73
2017-10-25T04:26:50.025Z,19.69
2017-10-25T04:27:30.478Z,22.72
2017-10-25T04:28:10.935Z,16.96
2017-10-25T04:28:51.374Z,22.95
2017-10-25T04:29:31.856Z,17.71
2017-10-25T04:30:12.326Z,16.94
2017-10-25T04:30:52.728Z,16.82
2017-10-25T04:31:33.195Z,16.76
2017-10-25T04:32:13.646Z,16.78
2017-10-25T04:32:54.069Z,16.75
2017-10-25T04:33:34.536Z,16.67
2017-10-25T04:34:14.990Z,16.66
2017-10-25T04:34:55.438Z,16.66
2017-10-25T04:35:35.880Z,16.63
2017-10-25T04:36:16.392Z,16.66
2017-10-25T04:36:56.864Z,16.56
2017-10-25T04:37:37.333Z,16.58
2017-10-25T04:38:17.761Z,16.57
2017-10-25T04:38:58.223Z,16.64
2017-10-25T04:40:45.729Z,16.43
2017-10-25T04:41:26.134Z,16.41
2017-10-25T04:42:06.586Z,16.34
2017-10-25T04:42:47.048Z,17.89
2017-10-25T04:43:27.468Z,16.45
2017-10-25T04:44:07.902Z,17.46
2017-10-25T04:44:48.356Z,16.49
2017-10-25T04:45:28.809Z,16.58
2017-10-25T04:46:09.276Z,16.52
2017-10-25T04:46:49.705Z,16.57
2017-10-25T04:47:30.134Z,16.7
2017-10-25T04:48:10.608Z,18.07
2017-10-25T04:48:51.106Z,19.74
2017-10-25T04:49:31.556Z,16.94
2017-10-25T04:50:12.002Z,16.61
2017-10-25T04:50:52.436Z,16.61
2017-10-25T04:52:29.802Z,16.63
2017-10-25T04:53:10.253Z,16.58
2017-10-25T04:53:50.732Z,16.6
2017-10-25T04:54:31.230Z,16.64
2017-10-25T04:55:11.765Z,16.71
2017-10-25T04:55:52.220Z,16.61
2017-10-25T04:56:32.687Z,16.63
2017-10-25T04:57:13.187Z,16.63
2017-10-25T04:57:53.690Z,16.6
2017-10-25T04:58:34.177Z,16.57
2017-10-25T04:59:14.661Z,16.58
2017-10-25T04:59:55.157Z,16.52
2017-10-25T05:00:35.628Z,22.75
2017-10-25T05:01:16.128Z,16.43
2017-10-25T05:01:56.621Z,18.07
2017-10-25T05:02:37.100Z,16.71
2017-10-25T05:03:17.600Z,16.63
2017-10-25T05:03:58.080Z,17.14
2017-10-25T05:04:38.563Z,16.5
2017-10-25T05:05:19.053Z,16.56
2017-10-25T05:05:59.568Z,16.57
2017-10-25T05:06:40.042Z,16.63
2017-10-25T05:07:20.517Z,16.61
2017-10-25T05:08:01.006Z,16.61
2017-10-25T05:08:41.555Z,16.58
2017-10-25T05:09:21.984Z,16.6
2017-10-25T05:10:02.486Z,16.61
2017-10-25T05:10:42.981Z,16.61
2017-10-25T05:11:23.465Z,16.53
2017-10-25T05:12:03.949Z,16.53
2017-10-25T05:12:44.445Z,16.5
2017-10-25T05:13:24.935Z,16.45
2017-10-25T05:14:05.444Z,16.42
2017-10-25T05:14:45.945Z,16.46
2017-10-25T05:15:26.411Z,16.43
2017-10-25T05:16:06.902Z,16.38
2017-10-25T05:16:47.381Z,16.3
2017-10-25T05:17:27.906Z,16.33
2017-10-25T05:18:08.375Z,16.34
2017-10-25T05:18:48.880Z,16.24
2017-10-25T05:19:29.349Z,16.28
2017-10-25T05:20:09.830Z,16.28
2017-10-25T05:20:50.315Z,16.3
2017-10-25T05:21:30.823Z,16.31
2017-10-25T05:22:11.314Z,16.21
2017-10-25T05:22:51.798Z,16.2
2017-10-25T05:23:32.284Z,16.12
2017-10-25T05:24:13.775Z,16.09
2017-10-25T05:24:54.267Z,16.11
2017-10-25T05:25:34.732Z,16.09
2017-10-25T05:26:15.184Z,16.05
2017-10-25T05:26:55.650Z,15.94
2017-10-25T05:27:36.079Z,15.96
2017-10-25T05:29:13.436Z,15.86
2017-10-25T05:29:54.011Z,15.94
2017-10-25T05:30:34.509Z,15.84
2017-10-25T05:31:14.944Z,15.86
2017-10-25T05:31:55.389Z,15.82
2017-10-25T05:32:35.830Z,15.82
2017-10-25T05:33:16.321Z,15.76
2017-10-25T05:33:56.826Z,15.74
2017-10-25T05:34:37.299Z,15.83
2017-10-25T05:35:17.772Z,15.8
2017-10-25T05:35:58.246Z,15.71
2017-10-25T05:36:38.708Z,15.72
2017-10-25T05:37:19.262Z,15.67
2017-10-25T05:37:59.738Z,15.93
2017-10-25T05:38:40.161Z,18.48
2017-10-25T05:39:20.610Z,15.68
2017-10-25T05:40:01.089Z,15.59
2017-10-25T05:40:41.571Z,15.74
2017-10-25T05:41:22.297Z,15.6
2017-10-25T05:42:02.816Z,15.67
2017-10-25T05:42:43.358Z,15.56
2017-10-25T05:43:23.829Z,15.59
2017-10-25T05:44:04.270Z,15.54
2017-10-25T05:44:44.726Z,15.64
2017-10-25T05:45:25.249Z,16.02
2017-10-25T05:46:05.707Z,15.78
2017-10-25T05:46:46.174Z,15.57
2017-10-25T05:47:26.747Z,15.6
2017-10-25T05:48:07.227Z,15.56
2017-10-25T05:48:47.734Z,15.65
2017-10-25T05:49:28.204Z,15.8
2017-10-25T05:50:08.630Z,15.53
2017-10-25T05:50:49.141Z,16.12
2017-10-25T05:51:29.688Z,15.6
2017-10-25T05:52:10.211Z,15.59
2017-10-25T05:52:50.691Z,17.14
2017-10-25T05:53:31.176Z,16.27
2017-10-25T05:54:11.665Z,22.3
2017-10-25T05:54:52.088Z,-40
2017-10-25T05:55:32.581Z,16.63
2017-10-25T05:56:13.057Z,16.78
2017-10-25T05:56:53.499Z,16.85
2017-10-25T05:57:34.122Z,15.64
2017-10-25T05:58:14.640Z,16.82
2017-10-25T05:58:55.126Z,15.64
2017-10-25T06:00:47.785Z,16.08
2017-10-25T06:01:28.239Z,15.74
2017-10-25T06:02:08.726Z,15.72
2017-10-25T06:02:49.176Z,15.71
2017-10-25T06:03:29.588Z,15.76
2017-10-25T06:04:10.028Z,15.72
2017-10-25T06:04:50.537Z,15.76
2017-10-25T06:05:30.980Z,15.72
2017-10-25T06:06:11.406Z,15.68
2017-10-25T06:07:58.902Z,15.71
2017-10-25T06:08:39.429Z,15.78
2017-10-25T06:09:19.869Z,15.74
2017-10-25T06:10:00.396Z,15.67
2017-10-25T06:10:40.894Z,15.78
2017-10-25T06:11:21.369Z,15.71
2017-10-25T06:12:01.876Z,15.72
2017-10-25T06:12:42.360Z,15.75
2017-10-25T06:13:22.828Z,15.82
2017-10-25T06:14:03.318Z,15.83
2017-10-25T06:14:44.579Z,15.82
2017-10-25T06:15:25.078Z,15.86
2017-10-25T06:16:05.577Z,15.96
2017-10-25T06:16:46.052Z,15.94
2017-10-25T06:17:26.512Z,16
2017-10-25T06:18:06.980Z,15.93
2017-10-25T06:18:47.425Z,15.93
2017-10-25T06:20:34.934Z,15.82
2017-10-25T06:21:15.391Z,15.92
2017-10-25T06:21:55.833Z,15.86
2017-10-25T06:22:36.399Z,15.9
2017-10-25T06:23:16.826Z,15.97
2017-10-25T06:23:57.389Z,15.92
2017-10-25T06:24:37.872Z,15.8
2017-10-25T06:25:18.331Z,15.71
2017-10-25T06:25:58.767Z,15.75
2017-10-25T06:26:39.227Z,15.75
2017-10-25T06:27:19.664Z,15.75
2017-10-25T06:28:00.177Z,15.84
2017-10-25T06:28:41.575Z,15.87
2017-10-25T06:29:21.989Z,15.84
2017-10-25T06:30:02.483Z,15.83
2017-10-25T06:30:42.950Z,15.89
2017-10-25T06:31:23.450Z,15.97
2017-10-25T06:32:03.978Z,15.96
2017-10-25T06:32:44.498Z,-39.49
2017-10-25T06:34:37.036Z,15.86
2017-10-25T06:35:17.518Z,15.8
2017-10-25T06:35:58.014Z,15.94
2017-10-25T06:36:38.492Z,-39.49
2017-10-25T06:37:19.021Z,16.07
2017-10-25T06:37:59.498Z,16.05
2017-10-25T06:38:39.927Z,16.11
2017-10-25T06:40:27.788Z,15.93
2017-10-25T06:41:08.298Z,16.01
2017-10-25T06:41:48.778Z,16.04
2017-10-25T06:42:29.256Z,16.01
2017-10-25T06:43:09.683Z,-39.49
2017-10-25T06:43:50.301Z,-39.49
2017-10-25T06:44:30.802Z,-39.49
2017-10-25T06:46:23.403Z,16.21
2017-10-25T06:47:03.889Z,-39.49
2017-10-25T06:47:44.328Z,-39.49
2017-10-25T06:48:24.787Z,-39.49
2017-10-25T06:49:05.230Z,-39.49
2017-10-25T06:51:02.809Z,16.08
2017-10-25T06:51:43.267Z,-39.49
2017-10-25T06:53:35.782Z,16.34
2017-10-25T06:54:16.336Z,-39.49
2017-10-25T06:54:56.845Z,-39.49
2017-10-25T06:55:37.303Z,16.63
2017-10-25T06:56:17.782Z,-39.49
2017-10-25T06:56:58.260Z,-39.49
2017-10-25T06:59:11.080Z,16.85
2017-10-25T06:59:51.655Z,-39.49
2017-10-25T07:00:32.073Z,-39.49
2017-10-25T07:01:12.547Z,-39.49
2017-10-25T07:01:53.005Z,-39.49
2017-10-25T07:02:33.559Z,16.97
2017-10-25T07:03:14.033Z,-39.49
2017-10-25T07:03:54.479Z,16.96
2017-10-25T07:05:42.038Z,17.01
2017-10-25T07:06:22.640Z,-39.49
2017-10-25T07:07:03.140Z,17
2017-10-25T07:07:43.601Z,16.96
2017-10-25T07:08:24.589Z,-39.49
2017-10-25T07:09:05.068Z,-39.49
2017-10-25T07:09:45.472Z,16.94
2017-10-25T07:10:25.971Z,-39.49
2017-10-25T07:11:06.453Z,-39.49
2017-10-25T07:11:46.983Z,-39.49
2017-10-25T07:12:27.482Z,-39.49
2017-10-25T07:13:07.975Z,-39.49
2017-10-25T07:13:48.448Z,-39.49
2017-10-25T07:14:28.893Z,-39.49
2017-10-25T07:15:09.313Z,-39.49
2017-10-25T07:15:49.846Z,-39.49
2017-10-25T07:16:30.316Z,-39.49
2017-10-25T07:17:10.779Z,-39.49
2017-10-25T07:18:58.253Z,17.12
2017-10-25T07:19:38.750Z,-39.49
2017-10-25T07:20:19.198Z,17.43
2017-10-25T07:20:59.741Z,17.48
2017-10-25T07:21:40.205Z,17.36
2017-10-25T07:22:20.708Z,17.26
2017-10-25T07:23:01.167Z,17.16
2017-10-25T07:23:41.622Z,16.98
2017-10-25T07:25:39.280Z,16.97
2017-10-25T07:26:19.774Z,17
2017-10-25T07:27:00.235Z,-39.49
2017-10-25T07:27:40.672Z,17.23
2017-10-25T07:28:21.296Z,17.18
2017-10-25T07:29:01.730Z,17.22
2017-10-25T07:29:42.161Z,-39.49
2017-10-25T07:30:22.618Z,17.03
2017-10-25T07:31:03.058Z,17.07
2017-10-25T07:31:43.518Z,17.04
2017-10-25T07:32:24.025Z,17.18
2017-10-25T07:34:11.537Z,17.41
2017-10-25T07:34:52.082Z,-39.49
2017-10-25T07:35:32.447Z,17.66
2017-10-25T07:36:12.936Z,17.68
2017-10-25T07:36:53.449Z,17.72
2017-10-25T07:37:33.950Z,17.59
2017-10-25T07:38:14.346Z,-39.49
2017-10-25T07:38:54.850Z,17.75
2017-10-25T07:39:35.338Z,17.77
2017-10-25T07:40:15.785Z,17.89
2017-10-25T07:40:56.277Z,17.99
2017-10-25T07:41:36.720Z,17.86
2017-10-25T07:42:17.188Z,18.05
2017-10-25T07:42:57.745Z,18.05
2017-10-25T07:43:38.254Z,-39.49
2017-10-25T07:44:18.694Z,-39.49
2017-10-25T07:46:11.288Z,17.97
2017-10-25T07:46:51.817Z,-39.49
2017-10-25T07:47:32.251Z,-39.49
2017-10-25T07:48:12.782Z,-39.49
2017-10-25T07:48:53.296Z,18.21
2017-10-25T07:49:33.757Z,-39.49
2017-10-25T07:51:26.304Z,18
2017-10-25T07:52:06.784Z,17.96
2017-10-25T07:52:47.255Z,-39.49
2017-10-25T07:53:27.737Z,-39.49
2017-10-25T07:54:08.262Z,-39.49
2017-10-25T07:54:48.834Z,-39.49
2017-10-25T07:55:29.320Z,-39.49
2017-10-25T07:56:09.830Z,-39.49
2017-10-25T07:56:50.347Z,-39.49
2017-10-25T07:57:30.881Z,-39.49
2017-10-25T07:58:11.344Z,-39.49
2017-10-25T07:59:48.761Z,18.12
2017-10-25T08:00:29.202Z,-39.49
2017-10-25T08:01:09.741Z,-39.49
2017-10-25T08:01:50.526Z,18.26
2017-10-25T08:02:31.279Z,-39.49
2017-10-25T08:03:11.713Z,-39.49
2017-10-25T08:03:52.159Z,-39.49
2017-10-25T08:04:32.611Z,-39.49
2017-10-25T08:05:13.135Z,-39.49
2017-10-25T08:05:53.773Z,-39.49
2017-10-25T08:06:34.240Z,17.95
2017-10-25T08:07:14.826Z,-39.49
2017-10-25T08:07:55.324Z,-39.49
2017-10-25T08:08:35.803Z,17.86
2017-10-25T08:09:16.272Z,-39.49
2017-10-25T08:09:56.744Z,17.89
2017-10-25T08:10:37.173Z,-39.49
2017-10-25T08:11:17.635Z,-39.49
2017-10-25T08:11:58.172Z,17.82
2017-10-25T08:12:38.663Z,17.74
2017-10-25T08:13:19.135Z,17.86
2017-10-25T08:13:59.654Z,17.81
2017-10-25T08:15:37.048Z,17.64
2017-10-25T08:16:17.539Z,-39.49
2017-10-25T08:18:30.302Z,17.97
2017-10-25T08:19:10.775Z,-39.49
2017-10-25T08:19:51.291Z,-39.49
2017-10-25T08:20:31.752Z,18.07
2017-10-25T08:21:12.295Z,-39.49
2017-10-25T08:21:52.796Z,-39.49
2017-10-25T08:22:33.307Z,-39.49
2017-10-25T08:23:13.786Z,-39.49
2017-10-25T08:23:54.254Z,-39.49
2017-10-25T08:24:34.695Z,-39.49
2017-10-25T08:25:15.223Z,-39.49
2017-10-25T08:25:55.766Z,-39.49
2017-10-25T08:26:36.222Z,-39.49
2017-10-25T08:28:13.719Z,18.65
2017-10-25T08:28:54.060Z,-39.49
2017-10-25T08:29:34.610Z,-39.49
2017-10-25T08:30:15.706Z,-39.49
2017-10-25T08:30:56.243Z,-39.49
2017-10-25T08:31:36.782Z,-39.49
2017-10-25T08:33:34.436Z,18.29
2017-10-25T08:34:15.652Z,-39.49
2017-10-25T08:34:56.149Z,18.51
2017-10-25T08:35:36.731Z,-39.49
2017-10-25T08:36:17.315Z,-39.49
2017-10-25T08:36:57.842Z,18.2
2017-10-25T08:37:38.358Z,18.18
2017-10-25T08:38:18.961Z,-39.49
2017-10-25T08:38:59.456Z,-39.49
2017-10-25T08:40:36.866Z,-40
2017-10-25T08:41:17.334Z,18.29
2017-10-25T08:41:57.789Z,-39.49
2017-10-25T08:42:38.289Z,18.41
2017-10-25T08:43:18.803Z,18.51
2017-10-25T08:43:59.274Z,-39.49
2017-10-25T08:44:39.785Z,18.57
2017-10-25T08:45:20.322Z,-39.49
2017-10-25T08:46:00.859Z,-39.49
2017-10-25T08:46:41.307Z,18.76
2017-10-25T08:47:21.780Z,-39.49
2017-10-25T08:48:02.258Z,-39.49
2017-10-25T08:48:42.724Z,-39.49
2017-10-25T08:50:20.085Z,18.99
2017-10-25T08:51:00.654Z,-39.49
2017-10-25T08:51:41.169Z,-39.49
2017-10-25T08:53:54.012Z,19.66
2017-10-25T08:54:34.647Z,-39.49
2017-10-25T08:55:15.200Z,-39.49
2017-10-25T08:55:55.644Z,-39.49
2017-10-25T08:56:36.117Z,-39.49
2017-10-25T08:57:16.581Z,-39.49
2017-10-25T08:57:57.023Z,-39.49
2017-10-25T08:59:34.377Z,20.2
2017-10-25T09:00:14.881Z,-39.49
2017-10-25T09:00:55.383Z,-39.49
2017-10-25T09:01:35.882Z,-39.49
2017-10-25T09:03:33.502Z,20.18
2017-10-25T09:04:13.984Z,-39.49
2017-10-25T09:04:54.484Z,-39.49
2017-10-25T09:05:34.957Z,-39.49
2017-10-25T09:07:22.455Z,20.64
2017-10-25T09:08:02.919Z,-39.49
2017-10-25T09:08:43.369Z,-39.49
2017-10-25T09:09:23.868Z,-39.49
2017-10-25T09:10:04.364Z,-39.49
2017-10-25T09:10:44.817Z,-39.49
2017-10-25T09:11:25.327Z,-39.49
2017-10-25T09:12:05.780Z,-39.49
2017-10-25T09:12:46.237Z,-39.49
2017-10-25T09:13:26.836Z,-39.49
2017-10-25T09:14:08.130Z,-39.49
2017-10-25T09:14:48.579Z,-39.49
2017-10-25T09:15:29.118Z,-39.49
2017-10-25T09:17:16.614Z,-40
2017-10-25T09:17:57.382Z,19.99
2017-10-25T09:18:37.821Z,-39.49
2017-10-25T09:20:25.343Z,19.83
2017-10-25T09:21:05.800Z,-39.49
2017-10-25T09:21:46.422Z,-39.49
2017-10-25T09:22:26.985Z,19.88
2017-10-25T09:23:08.205Z,19.94
2017-10-25T09:23:48.633Z,19.92
2017-10-25T09:24:29.151Z,-39.49
2017-10-25T09:25:09.605Z,19.83
2017-10-25T09:25:50.072Z,19.87
2017-10-25T09:26:30.586Z,19.87
2017-10-25T09:27:11.050Z,20.08
2017-10-25T09:27:51.519Z,19.96
2017-10-25T09:28:31.992Z,19.8
2017-10-25T09:29:12.453Z,19.84
2017-10-25T09:29:52.945Z,19.83
2017-10-25T09:30:33.431Z,19.8
2017-10-25T09:31:13.911Z,19.87
2017-10-25T09:31:54.407Z,20.08
2017-10-25T09:32:34.919Z,19.99
2017-10-25T09:33:15.453Z,19.98
2017-10-25T09:33:55.876Z,19.68
2017-10-25T09:34:36.358Z,19.61
2017-10-25T09:35:16.859Z,19.69
2017-10-25T09:35:57.410Z,19.66
2017-10-25T09:36:38.860Z,19.76
2017-10-25T09:38:31.506Z,19.62
2017-10-25T09:39:11.950Z,19.65
2017-10-25T09:39:52.469Z,19.84
2017-10-25T09:40:32.942Z,20.1
2017-10-25T09:41:13.419Z,19.94
2017-10-25T09:41:53.860Z,19.91
2017-10-25T09:43:41.420Z,19.91
2017-10-25T09:44:21.900Z,19.83
2017-10-25T09:46:09.459Z,19.76
2017-10-25T09:46:50.617Z,19.63
2017-10-25T09:47:31.045Z,19.43
2017-10-25T09:48:11.546Z,19.36
2017-10-25T09:48:52.054Z,19.51
2017-10-25T09:49:32.538Z,19.29
2017-10-25T09:50:13.033Z,19.32
2017-10-25T09:50:53.516Z,19.23